sensor_id;sensor_type;location;lat;lon;timestamp;P1;durP1;ratioP1;P2;durP2;ratioP2
13408;SDS011;6775;49.574;11.170;2023-01-29T00:01:33;3.30;;;3.00;;
13408;SDS011;6775;49.574;11.170;2023-01-29T00:04:01;4.23;;;2.67;;
13408;SDS011;6775;49.574;11.170;2023-01-29T00:06:30;3.17;;;2.80;;
13408;SDS011;6775;49.574;11.170;2023-01-29T00:08:58;4.60;;;2.70;;
13408;SDS011;6775;49.574;11.170;2023-01-29T00:11:26;5.50;;;3.30;;
13408;SDS011;6775;49.574;11.170;2023-01-29T00:13:54;3.10;;;2.73;;
13408;SDS011;6775;49.574;11.170;2023-01-29T00:16:22;4.50;;;3.40;;
13408;SDS011;6775;49.574;11.170;2023-01-29T00:18:50;3.30;;;2.87;;
13408;SDS011;6775;49.574;11.170;2023-01-29T00:21:19;3.37;;;2.63;;
13408;SDS011;6775;49.574;11.170;2023-01-29T00:23:49;4.37;;;3.33;;
13408;SDS011;6775;49.574;11.170;2023-01-29T00:26:17;3.03;;;2.57;;
13408;SDS011;6775;49.574;11.170;2023-01-29T00:28:45;2.87;;;2.50;;
13408;SDS011;6775;49.574;11.170;2023-01-29T00:31:14;3.73;;;2.90;;
13408;SDS011;6775;49.574;11.170;2023-01-29T00:33:43;3.47;;;2.90;;
13408;SDS011;6775;49.574;11.170;2023-01-29T00:36:11;4.70;;;2.70;;
13408;SDS011;6775;49.574;11.170;2023-01-29T00:38:41;4.57;;;2.60;;
13408;SDS011;6775;49.574;11.170;2023-01-29T00:41:11;3.30;;;3.00;;
13408;SDS011;6775;49.574;11.170;2023-01-29T00:43:58;4.53;;;3.20;;
13408;SDS011;6775;49.574;11.170;2023-01-29T00:46:44;3.13;;;2.80;;
13408;SDS011;6775;49.574;11.170;2023-01-29T00:49:12;3.43;;;2.60;;
13408;SDS011;6775;49.574;11.170;2023-01-29T00:51:40;3.83;;;2.80;;
13408;SDS011;6775;49.574;11.170;2023-01-29T00:54:08;4.07;;;3.10;;
13408;SDS011;6775;49.574;11.170;2023-01-29T00:56:38;3.83;;;2.90;;
13408;SDS011;6775;49.574;11.170;2023-01-29T00:59:06;3.10;;;2.90;;
13408;SDS011;6775;49.574;11.170;2023-01-29T01:01:34;3.30;;;3.00;;
13408;SDS011;6775;49.574;11.170;2023-01-29T01:04:19;4.03;;;3.23;;
13408;SDS011;6775;49.574;11.170;2023-01-29T01:06:47;2.97;;;2.50;;
13408;SDS011;6775;49.574;11.170;2023-01-29T01:09:15;3.13;;;2.70;;
13408;SDS011;6775;49.574;11.170;2023-01-29T01:12:02;4.80;;;2.93;;
13408;SDS011;6775;49.574;11.170;2023-01-29T01:14:30;2.73;;;2.53;;
13408;SDS011;6775;49.574;11.170;2023-01-29T01:17:01;3.43;;;2.93;;
13408;SDS011;6775;49.574;11.170;2023-01-29T01:19:29;4.67;;;3.23;;
13408;SDS011;6775;49.574;11.170;2023-01-29T01:21:57;3.27;;;2.97;;
13408;SDS011;6775;49.574;11.170;2023-01-29T01:24:25;4.00;;;3.20;;
13408;SDS011;6775;49.574;11.170;2023-01-29T01:26:53;4.30;;;2.80;;
13408;SDS011;6775;49.574;11.170;2023-01-29T01:29:22;4.87;;;2.87;;
13408;SDS011;6775;49.574;11.170;2023-01-29T01:31:51;3.40;;;3.10;;
13408;SDS011;6775;49.574;11.170;2023-01-29T01:34:20;3.77;;;2.87;;
13408;SDS011;6775;49.574;11.170;2023-01-29T01:36:49;3.17;;;2.90;;
13408;SDS011;6775;49.574;11.170;2023-01-29T01:39:17;4.80;;;2.80;;
13408;SDS011;6775;49.574;11.170;2023-01-29T01:41:45;5.13;;;2.83;;
13408;SDS011;6775;49.574;11.170;2023-01-29T01:47:15;3.50;;;3.20;;
13408;SDS011;6775;49.574;11.170;2023-01-29T01:49:46;3.23;;;2.93;;
13408;SDS011;6775;49.574;11.170;2023-01-29T01:52:14;3.10;;;2.70;;
13408;SDS011;6775;49.574;11.170;2023-01-29T01:54:46;5.63;;;3.40;;
13408;SDS011;6775;49.574;11.170;2023-01-29T01:57:19;4.63;;;3.00;;
13408;SDS011;6775;49.574;11.170;2023-01-29T01:59:51;3.50;;;3.07;;
13408;SDS011;6775;49.574;11.170;2023-01-29T02:02:25;3.70;;;3.37;;
13408;SDS011;6775;49.574;11.170;2023-01-29T02:05:11;4.77;;;3.10;;
13408;SDS011;6775;49.574;11.170;2023-01-29T02:07:58;4.97;;;3.30;;
13408;SDS011;6775;49.574;11.170;2023-01-29T02:10:45;4.57;;;2.93;;
13408;SDS011;6775;49.574;11.170;2023-01-29T02:13:13;4.67;;;3.37;;
13408;SDS011;6775;49.574;11.170;2023-01-29T02:15:43;5.03;;;3.47;;
13408;SDS011;6775;49.574;11.170;2023-01-29T02:18:15;3.77;;;3.47;;
13408;SDS011;6775;49.574;11.170;2023-01-29T02:20:47;4.03;;;3.27;;
13408;SDS011;6775;49.574;11.170;2023-01-29T02:26:44;4.20;;;3.70;;
13408;SDS011;6775;49.574;11.170;2023-01-29T02:29:22;4.27;;;3.70;;
13408;SDS011;6775;49.574;11.170;2023-01-29T02:32:02;3.37;;;3.07;;
13408;SDS011;6775;49.574;11.170;2023-01-29T02:34:42;3.80;;;3.03;;
13408;SDS011;6775;49.574;11.170;2023-01-29T02:37:37;4.23;;;3.30;;
13408;SDS011;6775;49.574;11.170;2023-01-29T02:40:11;4.77;;;3.10;;
13408;SDS011;6775;49.574;11.170;2023-01-29T02:42:46;4.43;;;3.50;;
13408;SDS011;6775;49.574;11.170;2023-01-29T02:45:23;4.73;;;3.50;;
13408;SDS011;6775;49.574;11.170;2023-01-29T02:47:59;3.93;;;3.10;;
13408;SDS011;6775;49.574;11.170;2023-01-29T02:50:30;5.33;;;3.17;;
13408;SDS011;6775;49.574;11.170;2023-01-29T02:53:04;3.70;;;3.30;;
13408;SDS011;6775;49.574;11.170;2023-01-29T02:55:37;5.03;;;3.40;;
13408;SDS011;6775;49.574;11.170;2023-01-29T02:58:10;3.37;;;3.07;;
13408;SDS011;6775;49.574;11.170;2023-01-29T03:00:43;3.87;;;3.37;;
13408;SDS011;6775;49.574;11.170;2023-01-29T03:03:13;5.37;;;3.63;;
13408;SDS011;6775;49.574;11.170;2023-01-29T03:05:46;4.93;;;3.80;;
13408;SDS011;6775;49.574;11.170;2023-01-29T03:08:23;4.43;;;3.77;;
13408;SDS011;6775;49.574;11.170;2023-01-29T03:11:03;4.13;;;3.40;;
13408;SDS011;6775;49.574;11.170;2023-01-29T03:13:34;4.17;;;3.80;;
13408;SDS011;6775;49.574;11.170;2023-01-29T03:16:09;4.83;;;3.97;;
13408;SDS011;6775;49.574;11.170;2023-01-29T03:18:47;4.57;;;3.63;;
13408;SDS011;6775;49.574;11.170;2023-01-29T03:21:21;6.03;;;4.00;;
13408;SDS011;6775;49.574;11.170;2023-01-29T03:24:11;6.27;;;3.87;;
13408;SDS011;6775;49.574;11.170;2023-01-29T03:27:00;5.60;;;4.17;;
13408;SDS011;6775;49.574;11.170;2023-01-29T03:29:49;5.47;;;4.73;;
13408;SDS011;6775;49.574;11.170;2023-01-29T03:32:38;4.57;;;4.03;;
13408;SDS011;6775;49.574;11.170;2023-01-29T03:35:08;4.13;;;3.73;;
13408;SDS011;6775;49.574;11.170;2023-01-29T03:37:40;3.87;;;3.40;;
13408;SDS011;6775;49.574;11.170;2023-01-29T03:40:11;4.23;;;3.73;;
13408;SDS011;6775;49.574;11.170;2023-01-29T03:42:43;4.77;;;4.00;;
13408;SDS011;6775;49.574;11.170;2023-01-29T03:45:20;4.23;;;3.83;;
13408;SDS011;6775;49.574;11.170;2023-01-29T03:47:55;5.17;;;4.10;;
13408;SDS011;6775;49.574;11.170;2023-01-29T03:50:32;4.20;;;3.80;;
13408;SDS011;6775;49.574;11.170;2023-01-29T03:53:07;5.43;;;4.30;;
13408;SDS011;6775;49.574;11.170;2023-01-29T03:55:45;5.07;;;4.20;;
13408;SDS011;6775;49.574;11.170;2023-01-29T03:58:24;4.93;;;4.10;;
13408;SDS011;6775;49.574;11.170;2023-01-29T04:01:00;5.97;;;4.43;;
13408;SDS011;6775;49.574;11.170;2023-01-29T04:03:32;4.40;;;4.00;;
13408;SDS011;6775;49.574;11.170;2023-01-29T04:06:06;5.17;;;4.00;;
13408;SDS011;6775;49.574;11.170;2023-01-29T04:08:39;4.80;;;3.70;;
13408;SDS011;6775;49.574;11.170;2023-01-29T04:11:14;3.70;;;3.33;;
13408;SDS011;6775;49.574;11.170;2023-01-29T04:13:44;4.17;;;3.63;;
13408;SDS011;6775;49.574;11.170;2023-01-29T04:16:14;3.77;;;3.40;;
13408;SDS011;6775;49.574;11.170;2023-01-29T04:18:48;4.13;;;3.73;;
13408;SDS011;6775;49.574;11.170;2023-01-29T04:21:16;4.03;;;3.63;;
13408;SDS011;6775;49.574;11.170;2023-01-29T04:23:45;4.30;;;3.53;;
13408;SDS011;6775;49.574;11.170;2023-01-29T04:26:24;4.83;;;3.83;;
13408;SDS011;6775;49.574;11.170;2023-01-29T04:29:14;4.80;;;3.93;;
13408;SDS011;6775;49.574;11.170;2023-01-29T04:31:56;3.63;;;3.33;;
13408;SDS011;6775;49.574;11.170;2023-01-29T04:34:35;4.50;;;3.60;;
13408;SDS011;6775;49.574;11.170;2023-01-29T04:37:20;4.33;;;3.93;;
13408;SDS011;6775;49.574;11.170;2023-01-29T04:39:53;5.10;;;3.73;;
13408;SDS011;6775;49.574;11.170;2023-01-29T04:42:32;3.90;;;3.50;;
13408;SDS011;6775;49.574;11.170;2023-01-29T04:45:09;4.07;;;3.60;;
13408;SDS011;6775;49.574;11.170;2023-01-29T04:47:46;4.63;;;3.80;;
13408;SDS011;6775;49.574;11.170;2023-01-29T04:50:19;6.70;;;4.00;;
13408;SDS011;6775;49.574;11.170;2023-01-29T04:52:52;3.90;;;3.47;;
13408;SDS011;6775;49.574;11.170;2023-01-29T04:55:26;4.57;;;3.57;;
13408;SDS011;6775;49.574;11.170;2023-01-29T04:58:05;4.50;;;4.10;;
13408;SDS011;6775;49.574;11.170;2023-01-29T05:00:38;6.77;;;4.23;;
13408;SDS011;6775;49.574;11.170;2023-01-29T05:03:09;4.30;;;3.53;;
13408;SDS011;6775;49.574;11.170;2023-01-29T05:05:42;5.53;;;4.40;;
13408;SDS011;6775;49.574;11.170;2023-01-29T05:08:13;4.67;;;4.13;;
13408;SDS011;6775;49.574;11.170;2023-01-29T05:10:44;5.30;;;4.40;;
13408;SDS011;6775;49.574;11.170;2023-01-29T05:13:14;6.87;;;4.23;;
13408;SDS011;6775;49.574;11.170;2023-01-29T05:15:43;6.40;;;4.00;;
13408;SDS011;6775;49.574;11.170;2023-01-29T05:18:16;4.77;;;3.57;;
13408;SDS011;6775;49.574;11.170;2023-01-29T05:20:45;5.00;;;4.17;;
13408;SDS011;6775;49.574;11.170;2023-01-29T05:23:14;4.47;;;4.07;;
13408;SDS011;6775;49.574;11.170;2023-01-29T05:25:43;4.50;;;3.90;;
13408;SDS011;6775;49.574;11.170;2023-01-29T05:28:12;5.20;;;4.23;;
13408;SDS011;6775;49.574;11.170;2023-01-29T05:30:42;5.00;;;4.10;;
13408;SDS011;6775;49.574;11.170;2023-01-29T05:33:12;5.53;;;4.30;;
13408;SDS011;6775;49.574;11.170;2023-01-29T05:35:40;5.33;;;4.00;;
13408;SDS011;6775;49.574;11.170;2023-01-29T05:38:10;5.07;;;4.40;;
13408;SDS011;6775;49.574;11.170;2023-01-29T05:40:38;5.40;;;4.33;;
13408;SDS011;6775;49.574;11.170;2023-01-29T05:43:10;4.40;;;3.70;;
13408;SDS011;6775;49.574;11.170;2023-01-29T05:45:41;4.87;;;4.00;;
13408;SDS011;6775;49.574;11.170;2023-01-29T05:48:09;4.57;;;3.93;;
13408;SDS011;6775;49.574;11.170;2023-01-29T05:50:37;4.40;;;4.00;;
13408;SDS011;6775;49.574;11.170;2023-01-29T05:53:05;4.87;;;3.30;;
13408;SDS011;6775;49.574;11.170;2023-01-29T05:55:34;4.13;;;3.73;;
13408;SDS011;6775;49.574;11.170;2023-01-29T05:58:02;4.17;;;3.47;;
13408;SDS011;6775;49.574;11.170;2023-01-29T06:00:31;4.57;;;3.37;;
13408;SDS011;6775;49.574;11.170;2023-01-29T06:03:00;5.63;;;4.23;;
13408;SDS011;6775;49.574;11.170;2023-01-29T06:05:29;3.87;;;3.47;;
13408;SDS011;6775;49.574;11.170;2023-01-29T06:08:00;6.17;;;3.90;;
13408;SDS011;6775;49.574;11.170;2023-01-29T06:10:36;5.30;;;4.20;;
13408;SDS011;6775;49.574;11.170;2023-01-29T06:13:05;6.57;;;5.10;;
13408;SDS011;6775;49.574;11.170;2023-01-29T06:15:33;6.13;;;4.73;;
13408;SDS011;6775;49.574;11.170;2023-01-29T06:18:01;5.47;;;4.33;;
13408;SDS011;6775;49.574;11.170;2023-01-29T06:20:29;4.77;;;3.57;;
13408;SDS011;6775;49.574;11.170;2023-01-29T06:22:57;4.30;;;3.90;;
13408;SDS011;6775;49.574;11.170;2023-01-29T06:25:24;5.20;;;4.70;;
13408;SDS011;6775;49.574;11.170;2023-01-29T06:27:54;4.33;;;3.93;;
13408;SDS011;6775;49.574;11.170;2023-01-29T06:30:24;6.00;;;4.60;;
13408;SDS011;6775;49.574;11.170;2023-01-29T06:32:54;5.87;;;4.80;;
13408;SDS011;6775;49.574;11.170;2023-01-29T06:35:23;6.07;;;4.40;;
13408;SDS011;6775;49.574;11.170;2023-01-29T06:37:52;5.57;;;4.57;;
13408;SDS011;6775;49.574;11.170;2023-01-29T06:40:20;5.83;;;4.30;;
13408;SDS011;6775;49.574;11.170;2023-01-29T06:42:47;4.50;;;3.70;;
13408;SDS011;6775;49.574;11.170;2023-01-29T06:45:17;3.93;;;3.63;;
13408;SDS011;6775;49.574;11.170;2023-01-29T06:47:44;4.97;;;4.20;;
13408;SDS011;6775;49.574;11.170;2023-01-29T06:50:12;6.40;;;4.23;;
13408;SDS011;6775;49.574;11.170;2023-01-29T06:52:40;3.77;;;3.47;;
13408;SDS011;6775;49.574;11.170;2023-01-29T06:55:08;5.07;;;3.40;;
13408;SDS011;6775;49.574;11.170;2023-01-29T06:57:36;4.93;;;4.30;;
13408;SDS011;6775;49.574;11.170;2023-01-29T07:00:05;5.27;;;3.70;;
13408;SDS011;6775;49.574;11.170;2023-01-29T07:02:35;4.80;;;3.80;;
13408;SDS011;6775;49.574;11.170;2023-01-29T07:05:03;4.40;;;3.70;;
13408;SDS011;6775;49.574;11.170;2023-01-29T07:07:33;4.07;;;3.67;;
13408;SDS011;6775;49.574;11.170;2023-01-29T07:10:01;3.83;;;3.37;;
13408;SDS011;6775;49.574;11.170;2023-01-29T07:12:30;5.73;;;4.00;;
13408;SDS011;6775;49.574;11.170;2023-01-29T07:14:57;5.27;;;4.13;;
13408;SDS011;6775;49.574;11.170;2023-01-29T07:17:25;4.30;;;3.83;;
13408;SDS011;6775;49.574;11.170;2023-01-29T07:19:54;4.77;;;4.03;;
13408;SDS011;6775;49.574;11.170;2023-01-29T07:22:22;6.47;;;4.47;;
13408;SDS011;6775;49.574;11.170;2023-01-29T07:24:50;5.70;;;4.43;;
13408;SDS011;6775;49.574;11.170;2023-01-29T07:27:18;6.10;;;4.80;;
13408;SDS011;6775;49.574;11.170;2023-01-29T07:29:45;5.93;;;5.10;;
13408;SDS011;6775;49.574;11.170;2023-01-29T07:32:13;7.10;;;4.93;;
13408;SDS011;6775;49.574;11.170;2023-01-29T07:34:41;5.63;;;4.87;;
13408;SDS011;6775;49.574;11.170;2023-01-29T07:37:10;6.70;;;5.03;;
13408;SDS011;6775;49.574;11.170;2023-01-29T07:39:38;6.70;;;5.17;;
13408;SDS011;6775;49.574;11.170;2023-01-29T07:42:06;7.30;;;5.27;;
13408;SDS011;6775;49.574;11.170;2023-01-29T07:44:34;7.13;;;4.83;;
13408;SDS011;6775;49.574;11.170;2023-01-29T07:47:01;7.13;;;5.40;;
13408;SDS011;6775;49.574;11.170;2023-01-29T07:49:29;6.73;;;5.80;;
13408;SDS011;6775;49.574;11.170;2023-01-29T07:51:57;6.47;;;5.27;;
13408;SDS011;6775;49.574;11.170;2023-01-29T07:54:26;5.93;;;4.67;;
13408;SDS011;6775;49.574;11.170;2023-01-29T07:56:54;8.37;;;6.80;;
13408;SDS011;6775;49.574;11.170;2023-01-29T07:59:22;7.37;;;6.10;;
13408;SDS011;6775;49.574;11.170;2023-01-29T08:01:49;7.03;;;5.33;;
13408;SDS011;6775;49.574;11.170;2023-01-29T08:04:17;5.20;;;4.70;;
13408;SDS011;6775;49.574;11.170;2023-01-29T08:06:45;5.60;;;4.40;;
13408;SDS011;6775;49.574;11.170;2023-01-29T08:09:13;6.83;;;4.23;;
13408;SDS011;6775;49.574;11.170;2023-01-29T08:11:42;5.40;;;4.20;;
13408;SDS011;6775;49.574;11.170;2023-01-29T08:14:10;5.70;;;4.60;;
13408;SDS011;6775;49.574;11.170;2023-01-29T08:16:38;5.80;;;4.57;;
13408;SDS011;6775;49.574;11.170;2023-01-29T08:19:06;9.50;;;6.77;;
13408;SDS011;6775;49.574;11.170;2023-01-29T08:21:34;7.47;;;5.67;;
13408;SDS011;6775;49.574;11.170;2023-01-29T08:24:01;4.97;;;4.20;;
13408;SDS011;6775;49.574;11.170;2023-01-29T08:26:30;5.43;;;4.10;;
13408;SDS011;6775;49.574;11.170;2023-01-29T08:28:59;4.77;;;4.17;;
13408;SDS011;6775;49.574;11.170;2023-01-29T08:31:26;5.47;;;4.87;;
13408;SDS011;6775;49.574;11.170;2023-01-29T08:33:55;5.87;;;4.53;;
13408;SDS011;6775;49.574;11.170;2023-01-29T08:36:23;4.87;;;4.37;;
13408;SDS011;6775;49.574;11.170;2023-01-29T08:38:51;5.57;;;4.40;;
13408;SDS011;6775;49.574;11.170;2023-01-29T08:41:19;5.77;;;4.40;;
13408;SDS011;6775;49.574;11.170;2023-01-29T08:43:47;4.67;;;4.27;;
13408;SDS011;6775;49.574;11.170;2023-01-29T08:46:16;5.17;;;4.37;;
13408;SDS011;6775;49.574;11.170;2023-01-29T08:48:44;5.03;;;4.53;;
13408;SDS011;6775;49.574;11.170;2023-01-29T08:51:12;5.63;;;5.03;;
13408;SDS011;6775;49.574;11.170;2023-01-29T08:53:40;4.97;;;4.47;;
13408;SDS011;6775;49.574;11.170;2023-01-29T08:56:07;5.07;;;4.57;;
13408;SDS011;6775;49.574;11.170;2023-01-29T08:58:35;6.73;;;5.27;;
13408;SDS011;6775;49.574;11.170;2023-01-29T09:01:06;5.77;;;5.17;;
13408;SDS011;6775;49.574;11.170;2023-01-29T09:03:36;5.73;;;5.13;;
13408;SDS011;6775;49.574;11.170;2023-01-29T09:06:07;4.80;;;4.30;;
13408;SDS011;6775;49.574;11.170;2023-01-29T09:08:35;6.53;;;5.33;;
13408;SDS011;6775;49.574;11.170;2023-01-29T09:11:03;5.50;;;4.97;;
13408;SDS011;6775;49.574;11.170;2023-01-29T09:13:31;7.30;;;5.60;;
13408;SDS011;6775;49.574;11.170;2023-01-29T09:15:59;5.30;;;4.80;;
13408;SDS011;6775;49.574;11.170;2023-01-29T09:18:28;13.23;;;8.13;;
13408;SDS011;6775;49.574;11.170;2023-01-29T09:20:57;10.27;;;6.80;;
13408;SDS011;6775;49.574;11.170;2023-01-29T09:23:27;10.77;;;6.30;;
13408;SDS011;6775;49.574;11.170;2023-01-29T09:25:55;7.97;;;6.03;;
13408;SDS011;6775;49.574;11.170;2023-01-29T09:28:23;7.57;;;5.70;;
13408;SDS011;6775;49.574;11.170;2023-01-29T09:30:51;7.77;;;6.23;;
13408;SDS011;6775;49.574;11.170;2023-01-29T09:33:19;6.47;;;4.63;;
13408;SDS011;6775;49.574;11.170;2023-01-29T09:35:49;7.23;;;6.10;;
13408;SDS011;6775;49.574;11.170;2023-01-29T09:38:18;7.23;;;5.70;;
13408;SDS011;6775;49.574;11.170;2023-01-29T09:40:48;5.80;;;5.20;;
13408;SDS011;6775;49.574;11.170;2023-01-29T09:43:25;6.67;;;5.50;;
13408;SDS011;6775;49.574;11.170;2023-01-29T09:45:59;5.20;;;4.70;;
13408;SDS011;6775;49.574;11.170;2023-01-29T09:48:32;6.00;;;5.00;;
13408;SDS011;6775;49.574;11.170;2023-01-29T09:51:02;6.60;;;5.30;;
13408;SDS011;6775;49.574;11.170;2023-01-29T09:53:35;6.27;;;5.20;;
13408;SDS011;6775;49.574;11.170;2023-01-29T09:56:08;6.43;;;5.60;;
13408;SDS011;6775;49.574;11.170;2023-01-29T09:58:40;6.63;;;5.37;;
13408;SDS011;6775;49.574;11.170;2023-01-29T10:01:11;6.47;;;5.00;;
13408;SDS011;6775;49.574;11.170;2023-01-29T10:03:52;6.83;;;5.47;;
13408;SDS011;6775;49.574;11.170;2023-01-29T10:06:36;7.57;;;5.80;;
13408;SDS011;6775;49.574;11.170;2023-01-29T10:09:22;6.27;;;5.17;;
13408;SDS011;6775;49.574;11.170;2023-01-29T10:12:22;5.47;;;4.87;;
13408;SDS011;6775;49.574;11.170;2023-01-29T10:15:05;6.57;;;5.10;;
13408;SDS011;6775;49.574;11.170;2023-01-29T10:17:49;5.20;;;4.70;;
13408;SDS011;6775;49.574;11.170;2023-01-29T10:20:41;6.10;;;5.50;;
13408;SDS011;6775;49.574;11.170;2023-01-29T10:23:16;5.53;;;4.43;;
13408;SDS011;6775;49.574;11.170;2023-01-29T10:25:49;8.50;;;5.33;;
13408;SDS011;6775;49.574;11.170;2023-01-29T10:28:19;7.00;;;4.93;;
13408;SDS011;6775;49.574;11.170;2023-01-29T10:30:53;5.50;;;4.67;;
13408;SDS011;6775;49.574;11.170;2023-01-29T10:33:26;6.33;;;4.60;;
13408;SDS011;6775;49.574;11.170;2023-01-29T10:36:18;5.77;;;5.20;;
13408;SDS011;6775;49.574;11.170;2023-01-29T10:38:49;6.43;;;5.33;;
13408;SDS011;6775;49.574;11.170;2023-01-29T10:41:27;5.83;;;5.00;;
13408;SDS011;6775;49.574;11.170;2023-01-29T10:44:09;10.07;;;6.77;;
13408;SDS011;6775;49.574;11.170;2023-01-29T10:46:53;17.60;;;10.60;;
13408;SDS011;6775;49.574;11.170;2023-01-29T10:49:36;15.83;;;9.43;;
13408;SDS011;6775;49.574;11.170;2023-01-29T10:52:22;12.37;;;7.23;;
13408;SDS011;6775;49.574;11.170;2023-01-29T10:55:02;6.53;;;5.37;;
13408;SDS011;6775;49.574;11.170;2023-01-29T10:57:48;6.43;;;5.30;;
13408;SDS011;6775;49.574;11.170;2023-01-29T11:00:23;7.33;;;5.60;;
13408;SDS011;6775;49.574;11.170;2023-01-29T11:02:53;5.80;;;4.67;;
13408;SDS011;6775;49.574;11.170;2023-01-29T11:05:23;6.17;;;5.27;;
13408;SDS011;6775;49.574;11.170;2023-01-29T11:07:59;7.67;;;5.77;;
13408;SDS011;6775;49.574;11.170;2023-01-29T11:10:30;8.10;;;5.70;;
13408;SDS011;6775;49.574;11.170;2023-01-29T11:13:03;8.37;;;5.87;;
13408;SDS011;6775;49.574;11.170;2023-01-29T11:15:32;7.93;;;6.30;;
13408;SDS011;6775;49.574;11.170;2023-01-29T11:18:01;8.07;;;6.00;;
13408;SDS011;6775;49.574;11.170;2023-01-29T11:20:32;5.93;;;5.07;;
13408;SDS011;6775;49.574;11.170;2023-01-29T11:23:00;6.07;;;5.20;;
13408;SDS011;6775;49.574;11.170;2023-01-29T11:25:28;5.83;;;4.90;;
13408;SDS011;6775;49.574;11.170;2023-01-29T11:27:58;5.30;;;4.70;;
13408;SDS011;6775;49.574;11.170;2023-01-29T11:30:29;6.57;;;4.80;;
13408;SDS011;6775;49.574;11.170;2023-01-29T11:33:04;5.73;;;4.97;;
13408;SDS011;6775;49.574;11.170;2023-01-29T11:35:34;6.30;;;5.10;;
13408;SDS011;6775;49.574;11.170;2023-01-29T11:38:06;5.83;;;4.97;;
13408;SDS011;6775;49.574;11.170;2023-01-29T11:40:43;5.60;;;4.97;;
13408;SDS011;6775;49.574;11.170;2023-01-29T11:43:15;6.33;;;4.90;;
13408;SDS011;6775;49.574;11.170;2023-01-29T11:45:47;8.47;;;5.47;;
13408;SDS011;6775;49.574;11.170;2023-01-29T11:48:17;5.60;;;4.67;;
13408;SDS011;6775;49.574;11.170;2023-01-29T11:50:50;5.93;;;5.10;;
13408;SDS011;6775;49.574;11.170;2023-01-29T11:53:23;7.10;;;5.17;;
13408;SDS011;6775;49.574;11.170;2023-01-29T11:56:02;5.70;;;4.83;;
13408;SDS011;6775;49.574;11.170;2023-01-29T11:58:33;7.00;;;5.33;;
13408;SDS011;6775;49.574;11.170;2023-01-29T12:01:03;6.43;;;5.20;;
13408;SDS011;6775;49.574;11.170;2023-01-29T12:03:33;5.63;;;4.60;;
13408;SDS011;6775;49.574;11.170;2023-01-29T12:06:06;5.60;;;4.80;;
13408;SDS011;6775;49.574;11.170;2023-01-29T12:08:40;9.93;;;6.37;;
13408;SDS011;6775;49.574;11.170;2023-01-29T12:11:09;9.07;;;5.67;;
13408;SDS011;6775;49.574;11.170;2023-01-29T12:13:39;6.23;;;5.30;;
13408;SDS011;6775;49.574;11.170;2023-01-29T12:16:14;9.70;;;6.67;;
13408;SDS011;6775;49.574;11.170;2023-01-29T12:18:48;7.23;;;5.90;;
13408;SDS011;6775;49.574;11.170;2023-01-29T12:21:21;6.70;;;5.43;;
13408;SDS011;6775;49.574;11.170;2023-01-29T12:23:56;6.70;;;5.20;;
13408;SDS011;6775;49.574;11.170;2023-01-29T12:26:28;5.47;;;4.80;;
13408;SDS011;6775;49.574;11.170;2023-01-29T12:29:06;6.87;;;4.63;;
13408;SDS011;6775;49.574;11.170;2023-01-29T12:31:53;5.40;;;4.47;;
13408;SDS011;6775;49.574;11.170;2023-01-29T12:34:29;5.43;;;4.80;;
13408;SDS011;6775;49.574;11.170;2023-01-29T12:37:08;7.00;;;5.07;;
13408;SDS011;6775;49.574;11.170;2023-01-29T12:39:42;6.33;;;4.93;;
13408;SDS011;6775;49.574;11.170;2023-01-29T12:42:12;5.30;;;4.80;;
13408;SDS011;6775;49.574;11.170;2023-01-29T12:44:43;5.63;;;5.00;;
13408;SDS011;6775;49.574;11.170;2023-01-29T12:47:18;5.90;;;4.90;;
13408;SDS011;6775;49.574;11.170;2023-01-29T12:49:50;4.93;;;4.43;;
13408;SDS011;6775;49.574;11.170;2023-01-29T12:52:20;5.13;;;4.63;;
13408;SDS011;6775;49.574;11.170;2023-01-29T12:54:55;5.23;;;4.70;;
13408;SDS011;6775;49.574;11.170;2023-01-29T12:57:31;6.33;;;5.10;;
13408;SDS011;6775;49.574;11.170;2023-01-29T13:00:05;6.33;;;5.03;;
13408;SDS011;6775;49.574;11.170;2023-01-29T13:02:43;5.60;;;5.10;;
13408;SDS011;6775;49.574;11.170;2023-01-29T13:05:17;5.43;;;4.80;;
13408;SDS011;6775;49.574;11.170;2023-01-29T13:07:50;5.33;;;4.83;;
13408;SDS011;6775;49.574;11.170;2023-01-29T13:10:24;5.43;;;4.83;;
13408;SDS011;6775;49.574;11.170;2023-01-29T13:12:57;7.60;;;6.77;;
13408;SDS011;6775;49.574;11.170;2023-01-29T13:15:29;8.77;;;6.23;;
13408;SDS011;6775;49.574;11.170;2023-01-29T13:18:06;6.03;;;5.43;;
13408;SDS011;6775;49.574;11.170;2023-01-29T13:20:57;9.67;;;6.37;;
13408;SDS011;6775;49.574;11.170;2023-01-29T13:23:27;6.23;;;5.27;;
13408;SDS011;6775;49.574;11.170;2023-01-29T13:26:00;7.53;;;5.83;;
13408;SDS011;6775;49.574;11.170;2023-01-29T13:28:28;7.57;;;5.83;;
13408;SDS011;6775;49.574;11.170;2023-01-29T13:31:15;5.93;;;4.83;;
13408;SDS011;6775;49.574;11.170;2023-01-29T13:33:54;6.17;;;5.13;;
13408;SDS011;6775;49.574;11.170;2023-01-29T13:36:28;6.83;;;5.50;;
13408;SDS011;6775;49.574;11.170;2023-01-29T13:39:01;6.40;;;5.43;;
13408;SDS011;6775;49.574;11.170;2023-01-29T13:41:32;7.43;;;5.60;;
13408;SDS011;6775;49.574;11.170;2023-01-29T13:44:03;8.40;;;6.00;;
13408;SDS011;6775;49.574;11.170;2023-01-29T13:46:37;7.80;;;5.60;;
13408;SDS011;6775;49.574;11.170;2023-01-29T13:49:20;9.10;;;6.30;;
13408;SDS011;6775;49.574;11.170;2023-01-29T13:52:14;7.03;;;5.70;;
13408;SDS011;6775;49.574;11.170;2023-01-29T13:54:51;8.70;;;6.20;;
13408;SDS011;6775;49.574;11.170;2023-01-29T13:57:33;8.70;;;6.43;;
13408;SDS011;6775;49.574;11.170;2023-01-29T14:06:42;8.00;;;5.83;;
13408;SDS011;6775;49.574;11.170;2023-01-29T14:12:31;7.80;;;5.20;;
13408;SDS011;6775;49.574;11.170;2023-01-29T14:15:13;5.90;;;5.30;;
13408;SDS011;6775;49.574;11.170;2023-01-29T14:17:57;7.27;;;5.57;;
13408;SDS011;6775;49.574;11.170;2023-01-29T14:20:32;7.43;;;6.10;;
13408;SDS011;6775;49.574;11.170;2023-01-29T14:23:19;6.57;;;5.83;;
13408;SDS011;6775;49.574;11.170;2023-01-29T14:25:53;5.93;;;5.33;;
13408;SDS011;6775;49.574;11.170;2023-01-29T14:28:23;6.03;;;5.43;;
13408;SDS011;6775;49.574;11.170;2023-01-29T14:30:53;7.07;;;5.40;;
13408;SDS011;6775;49.574;11.170;2023-01-29T14:33:23;7.07;;;6.17;;
13408;SDS011;6775;49.574;11.170;2023-01-29T14:35:54;7.67;;;5.57;;
13408;SDS011;6775;49.574;11.170;2023-01-29T14:38:25;7.07;;;5.77;;
13408;SDS011;6775;49.574;11.170;2023-01-29T14:41:02;6.50;;;5.70;;
13408;SDS011;6775;49.574;11.170;2023-01-29T14:43:33;5.90;;;5.23;;
13408;SDS011;6775;49.574;11.170;2023-01-29T14:49:07;6.30;;;5.07;;
13408;SDS011;6775;49.574;11.170;2023-01-29T14:51:36;8.53;;;6.07;;
13408;SDS011;6775;49.574;11.170;2023-01-29T14:54:16;6.07;;;5.03;;
13408;SDS011;6775;49.574;11.170;2023-01-29T14:56:54;6.20;;;5.30;;
13408;SDS011;6775;49.574;11.170;2023-01-29T14:59:26;7.73;;;5.50;;
13408;SDS011;6775;49.574;11.170;2023-01-29T15:01:59;7.70;;;6.00;;
13408;SDS011;6775;49.574;11.170;2023-01-29T15:04:32;6.63;;;5.03;;
13408;SDS011;6775;49.574;11.170;2023-01-29T15:07:06;7.27;;;5.63;;
13408;SDS011;6775;49.574;11.170;2023-01-29T15:09:46;5.63;;;5.10;;
13408;SDS011;6775;49.574;11.170;2023-01-29T15:12:19;7.83;;;5.63;;
13408;SDS011;6775;49.574;11.170;2023-01-29T15:14:55;6.07;;;5.17;;
13408;SDS011;6775;49.574;11.170;2023-01-29T15:17:31;5.63;;;4.53;;
13408;SDS011;6775;49.574;11.170;2023-01-29T15:22:53;8.60;;;5.37;;
13408;SDS011;6775;49.574;11.170;2023-01-29T15:25:22;5.50;;;4.53;;
13408;SDS011;6775;49.574;11.170;2023-01-29T15:27:50;6.47;;;4.93;;
13408;SDS011;6775;49.574;11.170;2023-01-29T15:30:22;7.60;;;5.20;;
13408;SDS011;6775;49.574;11.170;2023-01-29T15:32:55;7.97;;;5.10;;
13408;SDS011;6775;49.574;11.170;2023-01-29T15:35:27;6.83;;;5.00;;
13408;SDS011;6775;49.574;11.170;2023-01-29T15:37:57;7.43;;;5.50;;
13408;SDS011;6775;49.574;11.170;2023-01-29T15:40:27;5.17;;;4.43;;
13408;SDS011;6775;49.574;11.170;2023-01-29T15:42:55;5.83;;;5.20;;